Latest Weather Observations for Kempsey Airport

IDN60801

Issued at 6:05 am EST Sunday 31 August 2014 (issued every 30 minutes, with the page automatically refreshed every 10 minutes)

About weather observations | Map of weather stations | Latest weather observations for NSW | Other Formats
Station Details ID: 059007 Name: KEMPSEY AIRPORT AWS Lat: -31.07 Lon: 152.77 Height: 13.0 m
Data from the previous 72 hours. | See also: Recent months for locations in New South Wales
Date/Time
EST
Temp
°C
App
Temp
°C
Dew
Point
Rel
Hum
%
Delta-T
°C
Wind Press
QNH
hPa
Press
MSL
hPa
Rain
since 9 am
mm
Dir
 
Spd
km/h
Gust
km/h
Spd
kts
Gust
kts
31/06:00am 11.2 8.9 9.1 87 1.0 WNW 11 15 6 8 1018.7 1018.7 0.0
31/05:30am 11.1 8.7 8.8 86 1.1 WNW 11 13 6 7 1018.5 - 0.0
31/05:00am 11.4 9.1 9.0 85 1.2 WNW 11 15 6 8 1018.2 1018.2 0.0
31/04:30am 11.3 8.6 9.0 86 1.1 WNW 13 17 7 9 1018.3 - 0.0
31/04:00am 11.7 9.9 9.4 86 1.2 WNW 9 15 5 8 1018.1 1018.1 0.0
31/03:30am 11.2 9.3 9.1 87 1.0 WNW 9 11 5 6 1018.1 - 0.0
31/03:00am 11.8 11.2 9.0 83 1.4 WNW 2 7 1 4 1018.1 1018.1 0.0
31/02:30am 12.1 10.7 8.9 81 1.6 W 6 9 3 5 1018.3 - 0.0
31/02:00am 12.8 10.3 9.6 81 1.6 WSW 13 13 7 7 1018.1 1018.1 0.0
31/01:30am 13.1 10.9 9.4 78 1.9 WSW 11 13 6 7 1018.4 - 0.0
31/01:00am 13.7 11.2 9.6 76 2.1 WSW 13 17 7 9 1018.4 1018.4 0.0
31/12:30am 13.8 11.2 9.5 75 2.2 SW 13 17 7 9 1018.7 - 0.0
31/12:00am 15.0 12.3 10.4 74 2.4 SW 15 26 8 14 1018.8 1018.8 0.0
 
Date/Time
EST
Temp
°C
App
Temp
°C
Dew
Point
Rel
Hum
%
Delta-T
°C
Wind Press
QNH
hPa
Press
MSL
hPa
Rain
since 9 am
mm
Dir
 
Spd
km/h
Gust
km/h
Spd
kts
Gust
kts
30/11:30pm 14.1 11.9 9.5 74 2.4 SW 11 15 6 8 1018.8 - 0.0
30/11:00pm 15.4 13.1 10.4 72 2.6 SW 13 15 7 8 1019.0 1019.0 0.0
30/10:30pm 14.4 12.4 10.0 75 2.3 SW 11 17 6 9 1018.9 - 0.0
30/10:00pm 14.2 11.7 9.8 75 2.3 SW 13 15 7 8 1019.0 1019.0 0.0
30/09:30pm 13.0 11.1 9.1 77 2.0 WSW 9 13 5 7 1019.0 - 0.0
30/09:00pm 13.9 12.2 9.9 77 2.1 SW 9 13 5 7 1019.1 1019.1 0.0
30/08:30pm 13.8 12.0 9.3 74 2.3 SW 9 11 5 6 1019.1 - 0.0
30/08:00pm 14.6 12.1 9.6 72 2.6 WSW 13 17 7 9 1018.9 1018.9 0.0
30/07:30pm 15.3 12.1 10.1 71 2.7 WSW 17 26 9 14 1018.9 - 0.0
30/07:00pm 14.5 12.1 9.9 74 2.4 WSW 13 17 7 9 1018.9 1018.9 0.0
30/06:30pm 14.8 12.7 9.6 71 2.7 WSW 11 15 6 8 1018.6 - 0.0
30/06:00pm 15.9 13.1 10.0 68 3.1 SW 15 20 8 11 1018.5 1018.5 0.0
30/05:30pm 17.2 13.7 10.1 63 3.8 SSW 19 32 10 17 1018.6 - 0.0
30/05:00pm 18.0 13.7 10.6 62 4.0 SSW 24 35 13 19 1018.4 1018.4 0.0
30/04:30pm 18.5 14.9 10.6 60 4.3 SSW 20 32 11 17 1018.0 - 0.0
30/04:00pm 19.0 13.4 10.3 57 4.7 SW 30 39 16 21 1017.8 1017.8 0.0
30/03:30pm 19.5 13.6 10.5 56 4.9 SW 32 43 17 23 1017.7 - 0.0
30/03:00pm 20.4 14.7 11.3 56 5.0 SSW 32 44 17 24 1017.7 1017.7 0.0
30/02:30pm 20.4 14.6 10.8 54 5.2 SW 32 44 17 24 1017.8 - 0.0
30/02:00pm 21.0 15.3 11.1 53 5.4 SSW 32 43 17 23 1017.9 1017.9 0.0
30/01:30pm 20.4 15.3 10.5 53 5.4 SW 28 37 15 20 1018.2 - 0.0
30/01:13pm 20.1 15.2 11.3 57 4.8 SW 28 46 15 25 1018.4 - 0.0
30/01:00pm 20.1 14.6 10.5 54 5.2 SSW 30 46 16 25 1018.6 1018.6 0.0
30/12:30pm 20.3 13.9 10.7 54 5.2 SW 35 44 19 24 1018.6 - 0.0
30/12:00pm 19.8 14.6 11.6 59 4.5 SW 30 43 16 23 1018.9 1018.9 0.0
30/11:30am 19.9 14.1 10.9 56 4.9 SW 32 44 17 24 1019.2 - 0.0
30/11:00am 19.4 13.7 11.2 59 4.5 SW 32 43 17 23 1019.6 1019.6 0.0
30/10:30am 18.6 13.6 10.9 61 4.2 SSW 28 46 15 25 1019.8 - 0.0
30/10:26am 18.4 13.4 11.0 62 4.0 SSW 28 46 15 25 1019.8 - 0.0
30/10:00am 19.0 13.2 10.8 59 4.4 SW 32 43 17 23 1019.9 1019.9 0.0
30/09:30am 17.8 12.1 9.9 60 4.2 SW 30 46 16 25 1020.0 - 0.0
30/09:00am 17.7 11.8 10.3 62 3.9 SW 32 43 17 23 1020.0 1020.0 0.2
30/08:30am 17.5 12.7 10.4 63 3.8 SW 26 35 14 19 1020.0 - 0.2
30/08:00am 15.8 10.2 10.1 69 3.0 SW 30 41 16 22 1020.1 1020.1 0.2
30/07:30am 15.8 10.3 9.2 65 3.4 SW 28 41 15 22 1019.8 - 0.2
30/07:00am 15.1 9.1 8.8 66 3.2 SW 30 39 16 21 1019.6 1019.6 0.2
30/06:30am 14.9 10.4 8.4 65 3.3 SW 22 35 12 19 1019.1 - 0.2
30/06:00am 14.8 9.5 8.3 65 3.3 SW 26 37 14 20 1018.6 1018.6 0.2
30/05:30am 14.6 8.4 7.9 64 3.3 SW 30 44 16 24 1018.4 - 0.2
30/05:05am 15.0 8.8 8.0 63 3.5 SW 30 48 16 26 1018.2 - 0.2
30/05:00am 14.8 9.0 7.8 63 3.5 SW 28 41 15 22 1018.2 1018.2 0.2
30/04:30am 14.6 8.7 7.4 62 3.5 SW 28 39 15 21 1018.1 - 0.2
30/04:00am 13.9 8.6 6.7 62 3.5 WSW 24 35 13 19 1018.0 1018.0 0.2
30/03:30am 13.8 8.8 6.4 61 3.5 SW 22 33 12 18 1018.2 - 0.2
30/03:00am 14.3 8.6 6.6 60 3.7 SW 26 41 14 22 1018.0 1018.0 0.2
30/02:30am 13.6 8.9 6.2 61 3.5 SW 20 32 11 17 1018.5 - 0.2
30/02:00am 13.5 9.0 5.9 60 3.6 WSW 19 28 10 15 1018.6 1018.6 0.2
30/01:30am 13.6 8.4 5.5 58 3.8 SW 22 30 12 16 1018.8 - 0.2
30/01:00am 13.9 8.7 5.3 56 4.0 WSW 22 33 12 18 1019.2 1019.2 0.2
30/12:30am 13.8 8.2 5.2 56 4.0 WSW 24 33 13 18 1019.5 - 0.2
30/12:00am 13.5 8.6 5.2 57 3.9 WSW 20 26 11 14 1019.8 1019.8 0.2
 
Date/Time
EST
Temp
°C
App
Temp
°C
Dew
Point
Rel
Hum
%
Delta-T
°C
Wind Press
QNH
hPa
Press
MSL
hPa
Rain
since 9 am
mm
Dir
 
Spd
km/h
Gust
km/h
Spd
kts
Gust
kts
29/11:30pm 13.6 8.7 5.0 56 4.0 WSW 20 32 11 17 1020.2 - 0.2
29/11:00pm 13.9 9.0 5.0 55 4.1 WSW 20 32 11 17 1020.3 1020.3 0.2
29/10:30pm 13.4 7.8 5.6 59 3.7 SW 24 33 13 18 1020.5 - 0.2
29/10:00pm 13.5 8.9 6.6 63 3.3 SW 20 30 11 16 1020.8 1020.8 0.2
29/09:30pm 13.4 8.8 6.7 64 3.2 SW 20 28 11 15 1021.1 - 0.2
29/09:00pm 12.6 8.7 6.9 68 2.7 WSW 17 22 9 12 1021.3 1021.3 0.2
29/08:30pm 13.7 9.3 7.2 65 3.2 SW 20 30 11 16 1021.4 - 0.2
29/08:00pm 13.8 9.6 7.3 65 3.2 SW 19 26 10 14 1021.6 1021.6 0.2
29/07:30pm 14.2 9.8 7.5 64 3.3 SW 20 30 11 16 1021.6 - 0.2
29/07:00pm 14.7 9.9 7.3 61 3.6 SW 22 32 12 17 1021.6 1021.6 0.2
29/06:30pm 15.5 10.6 7.0 57 4.2 SW 22 35 12 19 1021.3 - 0.2
29/06:00pm 14.5 10.9 6.6 59 3.8 SW 15 19 8 10 1020.8 1020.8 0.2
29/05:30pm 14.8 10.3 5.9 55 4.3 SW 19 28 10 15 1020.4 - 0.2
29/05:00pm 16.0 10.4 5.6 50 5.0 SSW 24 37 13 20 1020.6 1020.6 0.2
29/04:30pm 17.0 10.7 5.6 47 5.5 SSW 28 39 15 21 1020.5 - 0.2
29/04:00pm 17.1 10.1 6.0 48 5.4 SSW 32 46 17 25 1020.6 1020.6 0.2
29/03:38pm 17.6 11.0 6.2 47 5.6 SSW 30 48 16 26 1020.6 - 0.2
29/03:30pm 17.0 10.5 6.5 50 5.2 SSW 30 43 16 23 1020.6 - 0.2
29/03:00pm 18.5 12.0 6.4 45 6.0 SW 30 39 16 21 1020.6 1020.6 0.2
29/02:49pm 19.0 12.7 7.4 47 5.9 SW 30 48 16 26 1020.6 - 0.2
29/02:30pm 18.7 12.8 7.5 48 5.7 SW 28 35 15 19 1020.7 - 0.2
29/02:00pm 18.3 12.2 6.5 46 5.8 SSW 28 43 15 23 1021.2 1021.2 0.2
29/01:30pm 17.7 12.0 6.6 48 5.5 SSW 26 39 14 21 1021.5 - 0.2
29/01:00pm 18.5 12.8 6.7 46 5.9 SW 26 33 14 18 1021.5 1021.5 0.2
29/12:30pm 18.3 11.3 6.2 45 6.0 SW 32 43 17 23 1022.0 - 0.2
29/12:00pm 18.5 11.6 6.4 45 6.0 SW 32 44 17 24 1022.1 1022.1 0.2
29/11:38am 18.9 12.5 8.6 51 5.3 SW 32 50 17 27 1022.5 - 0.2
29/11:35am 17.9 10.1 6.7 48 5.6 SW 37 50 20 27 1022.5 - 0.2
29/11:30am 18.5 12.9 7.0 47 5.8 SSW 26 35 14 19 1022.6 - 0.2
29/11:00am 18.4 12.1 7.2 48 5.6 SSW 30 43 16 23 1022.9 1022.9 0.2
29/10:42am 18.1 11.9 6.3 46 5.8 SSW 28 46 15 25 1023.2 - 0.0
29/10:30am 18.2 12.3 7.3 49 5.5 SSW 28 44 15 24 1023.3 - 0.0
29/10:00am 17.3 10.6 7.4 52 4.9 SSW 32 50 17 27 1023.5 1023.5 0.0
29/09:54am 16.8 10.4 6.9 52 4.9 SSW 30 50 16 27 1023.5 - 0.0
29/09:30am 16.7 11.6 7.6 55 4.6 SSW 24 37 13 20 1023.6 - 0.0
29/09:00am 16.3 10.8 7.5 56 4.4 SW 26 39 14 21 1023.9 1023.9 0.8
29/08:30am 15.8 11.7 8.5 62 3.7 SSW 20 28 11 15 1024.2 - 0.8
29/08:00am 15.1 9.9 7.4 60 3.8 SW 24 33 13 18 1024.2 1024.2 0.8
29/07:30am 13.9 9.3 6.7 62 3.5 SSW 20 30 11 16 1024.0 - 0.8
29/07:00am 13.3 8.9 6.4 63 3.3 SSW 19 28 10 15 1023.7 1023.7 0.8
29/06:30am 12.6 7.6 6.4 66 2.9 SSW 22 32 12 17 1023.4 - 0.8
29/06:00am 12.7 8.1 6.5 66 2.9 SSW 20 28 11 15 1023.2 1023.2 0.8
29/05:30am 13.0 7.7 6.8 66 3.0 SSW 24 32 13 17 1023.0 - 0.8
29/05:00am 12.0 8.4 6.7 70 2.5 SW 15 24 8 13 1022.9 1022.9 0.8
29/04:30am 12.6 8.7 7.1 69 2.7 SW 17 24 9 13 1022.9 - 0.8
29/04:00am 12.0 7.7 6.9 71 2.4 SW 19 26 10 14 1023.1 1023.1 0.8
29/03:30am 12.3 7.4 6.8 69 2.6 SSW 22 32 12 17 1022.7 - 0.8
29/03:00am 12.5 8.1 7.2 70 2.5 SSW 20 30 11 16 1022.7 1022.7 0.8
29/02:30am 12.3 8.0 7.2 71 2.5 SSW 19 26 10 14 1022.7 - 0.8
29/02:00am 12.5 8.1 7.2 70 2.5 SW 20 26 11 14 1023.0 1023.0 0.8
29/01:30am 12.9 8.7 7.6 70 2.6 SW 19 24 10 13 1023.1 - 0.8
29/01:00am 12.9 10.4 8.4 74 2.2 SSW 11 17 6 9 1023.4 1023.4 0.8
29/12:30am 11.6 9.2 8.5 81 1.5 SSW 11 15 6 8 1023.6 - 0.8
29/12:00am 12.6 8.9 9.4 81 1.6 SW 19 24 10 13 1024.0 1024.0 0.8
 
Date/Time
EST
Temp
°C
App
Temp
°C
Dew
Point
Rel
Hum
%
Delta-T
°C
Wind Press
QNH
hPa
Press
MSL
hPa
Rain
since 9 am
mm
Dir
 
Spd
km/h
Gust
km/h
Spd
kts
Gust
kts
28/11:30pm 12.9 9.8 9.0 77 2.0 SSW 15 24 8 13 1024.3 - 0.8
28/11:00pm 12.6 9.0 8.5 76 2.0 SSW 17 24 9 13 1024.1 1024.1 0.8
28/10:30pm 12.8 9.0 8.9 77 2.0 SSW 19 26 10 14 1024.0 - 0.8
28/10:00pm 12.7 8.7 9.0 78 1.9 SSW 20 28 11 15 1024.1 1024.1 0.8
28/09:30pm 12.8 9.0 9.1 78 1.9 SSW 19 24 10 13 1024.2 - 0.8
28/09:00pm 13.1 9.8 9.5 79 1.8 SSW 17 26 9 14 1024.3 1024.3 0.8
28/08:30pm 12.4 9.9 9.6 83 1.4 SW 13 19 7 10 1024.2 - 0.8
28/08:00pm 12.5 10.2 9.1 80 1.7 SSW 11 15 6 8 1024.0 1024.0 0.8
28/07:30pm 12.0 10.2 9.6 85 1.2 W 9 11 5 6 1023.9 - 0.8
28/07:00pm 12.8 11.3 9.3 79 1.8 W 7 11 4 6 1023.8 1023.8 0.8
28/06:30pm 14.0 11.9 9.8 76 2.2 SSW 11 17 6 9 1023.6 - 0.8
28/06:00pm 14.7 11.4 9.7 72 2.6 S 17 26 9 14 1023.2 1023.2 0.8
28/05:30pm 15.1 11.8 9.5 69 2.9 S 17 20 9 11 1022.6 - 0.8
28/05:00pm 16.2 12.2 8.9 62 3.7 S 20 30 11 16 1022.2 1022.2 0.8
28/04:30pm 15.9 12.3 9.8 67 3.2 SSW 19 28 10 15 1021.9 - 0.8
28/04:00pm 16.8 12.3 10.0 64 3.6 S 24 33 13 18 1021.8 1021.8 0.8
28/03:30pm 17.2 13.5 10.3 64 3.7 S 20 28 11 15 1021.7 - 0.8
28/03:00pm 17.5 11.8 9.7 60 4.1 S 30 43 16 23 1021.4 1021.4 0.8
28/02:30pm 19.0 13.9 9.2 53 5.2 S 26 37 14 20 1021.1 - 0.8
28/02:00pm 19.1 13.6 9.0 52 5.3 S 28 37 15 20 1021.2 1021.2 0.8
28/01:30pm 18.4 13.3 9.2 55 4.8 S 26 35 14 19 1021.3 - 0.8
28/01:00pm 18.9 13.0 9.1 53 5.1 S 30 41 16 22 1021.1 1021.1 0.8
28/12:30pm 18.8 13.0 10.9 60 4.3 S 32 41 17 22 1021.3 - 0.8
28/12:00pm 17.8 14.2 12.9 73 2.7 S 24 32 13 17 1021.6 1021.6 0.8
28/11:30am 17.2 15.7 14.3 83 1.7 SW 15 24 8 13 1022.2 - 0.8
28/11:00am 15.0 12.0 12.5 85 1.4 S 20 30 11 16 1022.5 1022.5 0.8
28/10:30am 17.0 14.0 12.7 76 2.4 S 20 28 11 15 1022.6 - 0.2
28/10:00am 16.0 13.2 13.1 83 1.6 S 20 32 11 17 1022.5 1022.5 0.2
28/09:30am 16.1 13.9 12.1 77 2.2 SSW 15 22 8 12 1022.3 - 0.0
28/09:00am 15.7 12.8 12.8 83 1.6 SSW 20 26 11 14 1022.2 1022.2 24.8
28/08:30am 14.4 11.3 12.3 87 1.1 SSW 20 26 11 14 1022.0 - 24.8
28/08:00am 14.4 12.1 11.9 85 1.3 SSW 15 20 8 11 1021.7 1021.7 24.8
28/07:30am 13.4 11.0 11.3 87 1.1 SW 15 19 8 10 1021.5 - 24.8
28/07:00am 13.5 10.3 11.2 86 1.2 SSW 19 24 10 13 1021.2 1021.2 24.8
28/06:30am 13.2 10.3 11.1 87 1.1 SSW 17 26 9 14 1021.0 - 24.8

Other Formats:

Comma delimited format used in spreadsheet applications
http://www.bom.gov.au/fwo/IDN60801/IDN60801.94785.axf

JavaScript Object Notation format (JSON) in row-major order
http://www.bom.gov.au/fwo/IDN60801/IDN60801.94785.json